MAPA DE AEROPUERTO

INFORMACIÓN METAR y TAF

METAR FOR LEBL
ADDS - METARS form results

(1047 UTC 05 August 2021)
Data provider http://aviationweather.gov/metar/data/
 
METAR text: LEBL 051030Z 20012KT 9999 FEW030 26/20 Q1014 NOSIG
Conditions at: LEBL (BARCELONA AIRPOR, ES) observed 1030 UTC 05 August 2021
Temperature: 26.0°C (79°F)
Dewpoint: 20.0°C (68°F) [RH = 70%]
Pressure (altimeter): 29.94 inches Hg (1014.0 mb)
Winds: from the SSW (200 degrees) at 14 MPH (12 knots; 6.2 m/s)
Visibility: 6 or more miles (10+ km)
Ceiling: at least 12,000 feet AGL
Clouds: few clouds at 3000 feet AGL
Weather: no significant weather observed at this time

METAR text: LEBL 051000Z 17008KT 130V200 9999 FEW025 26/20 Q1015 NOSIG
Conditions at: LEBL (BARCELONA AIRPOR, ES) observed 1000 UTC 05 August 2021
Temperature: 26.0°C (79°F)
Dewpoint: 20.0°C (68°F) [RH = 70%]
Pressure (altimeter): 29.97 inches Hg (1015.0 mb)
Winds: from the S (170 degrees) at 9 MPH (8 knots; 4.1 m/s)
Visibility: 6 or more miles (10+ km)
Ceiling: at least 12,000 feet AGL
Clouds: few clouds at 2500 feet AGL
Weather: no significant weather observed at this time

Forecast for: LEBL (BARCELONA AIRPOR, ES)
Text: TAF LEBL 050500Z 0506/0606 33005KT 9999 SCT014 TX29/0512Z TN21/0506Z
Forecast period: 0600 to 0900 UTC 05 August 2021
Forecast type: FROM: standard forecast or significant change
Winds: from the NNW (330 degrees) at 6 MPH (5 knots; 2.6 m/s)
Visibility: 6 or more miles (10+ km)
Ceiling: at least 12,000 feet AGL
Clouds: scattered clouds at 1400 feet AGL
Weather: no significant weather forecast for this period
Text: BECMG 0509/0511 22013KT
Forecast period: 0900 to 1800 UTC 05 August 2021
Forecast type: BECOMING: Conditions expected to become as follows by 1100 UTC 05 August 2021
Winds: from the SW (220 degrees) at 15 MPH (13 knots; 6.7 m/s)
Visibility: 6 or more miles (10+ km)
Ceiling: at least 12,000 feet AGL
Clouds: scattered clouds at 1400 feet AGL
Weather: no significant weather forecast for this period
Text: BECMG 0518/0520 15004KT
Forecast period: 1800 UTC 05 August 2021 to 0600 UTC 06 August 2021
Forecast type: BECOMING: Conditions expected to become as follows by 2000 UTC 05 August 2021
Winds: from the SSE (150 degrees) at 5 MPH (4 knots; 2.1 m/s)
Visibility: 6 or more miles (10+ km)
Ceiling: at least 12,000 feet AGL
Clouds: scattered clouds at 1400 feet AGL
Weather: no significant weather forecast for this period